Time,TemperatureF,DewpointF,PressureIn,WindDirection,WindDirectionDegrees,WindSpeedMPH,WindSpeedGustMPH,Humidity,HourlyPrecipIn,Conditions,Clouds,dailyrainin,SoftwareType,DateUTC
2013-12-14 00:09:00,27.5,21.0,30.32,SW,219,0.0,-999.0,77,-99.99,,,0.00,weatherlink.com 1.10,2013-12-14 05:09:00,
2013-12-14 00:24:00,27.5,21.0,30.32,SW,219,0.0,-999.0,77,-99.99,,,0.00,weatherlink.com 1.10,2013-12-14 05:24:00,
2013-12-14 00:39:00,27.5,21.0,30.31,SW,219,0.0,-999.0,77,-99.99,,,0.00,weatherlink.com 1.10,2013-12-14 05:39:00,
2013-12-14 00:54:00,27.5,22.0,30.31,SW,219,0.0,-999.0,78,-99.99,,,0.00,weatherlink.com 1.10,2013-12-14 05:54:00,
2013-12-14 01:09:00,27.4,22.0,30.31,SW,219,0.0,-999.0,79,-99.99,,,0.00,weatherlink.com 1.10,2013-12-14 06:09:00,
2013-12-14 01:24:00,27.2,22.0,30.32,SW,219,0.0,-999.0,79,-99.99,,,0.00,weatherlink.com 1.10,2013-12-14 06:24:00,
2013-12-14 01:39:00,27.2,21.0,30.32,NE,41,2.0,-999.0,77,-99.99,,,0.00,weatherlink.com 1.10,2013-12-14 06:39:00,
2013-12-14 01:54:00,27.6,20.0,30.32,ESE,111,2.0,-999.0,74,-99.99,,,0.00,weatherlink.com 1.10,2013-12-14 06:54:00,
2013-12-14 02:09:00,27.0,19.0,30.33,NNW,344,2.0,-999.0,73,-99.99,,,0.00,weatherlink.com 1.10,2013-12-14 07:09:00,
2013-12-14 02:24:00,26.5,19.0,30.34,ESE,111,4.0,-999.0,73,-99.99,,,0.00,weatherlink.com 1.10,2013-12-14 07:24:00,
2013-12-14 02:39:00,26.1,19.0,30.34,East,95,4.0,-999.0,74,-99.99,,,0.00,weatherlink.com 1.10,2013-12-14 07:39:00,
2013-12-14 02:55:00,25.7,18.0,30.35,NE,46,1.0,-999.0,74,-99.99,,,0.00,weatherlink.com 1.10,2013-12-14 07:55:00,
2013-12-14 03:10:00,25.3,18.0,30.36,NNE,24,0.0,-999.0,74,-99.99,,,0.00,weatherlink.com 1.10,2013-12-14 08:10:00,
2013-12-14 03:25:00,25.0,17.0,30.36,NW,306,2.0,-999.0,73,-99.99,,,0.00,weatherlink.com 1.10,2013-12-14 08:25:00,
2013-12-14 03:40:00,24.7,17.0,30.37,ENE,61,7.0,-999.0,73,-99.99,,,0.00,weatherlink.com 1.10,2013-12-14 08:40:00,
2013-12-14 03:55:00,24.5,17.0,30.36,North,9,1.0,-999.0,73,-99.99,,,0.00,weatherlink.com 1.10,2013-12-14 08:55:00,
2013-12-14 04:10:00,24.3,16.0,30.35,East,88,0.0,-999.0,72,-99.99,,,0.00,weatherlink.com 1.10,2013-12-14 09:10:00,
2013-12-14 04:25:00,24.2,17.0,30.35,ENE,57,3.0,-999.0,73,-99.99,,,0.00,weatherlink.com 1.10,2013-12-14 09:25:00,
2013-12-14 04:40:00,24.0,16.0,30.34,NNE,12,2.0,-999.0,72,-99.99,,,0.00,weatherlink.com 1.10,2013-12-14 09:40:00,
2013-12-14 04:55:00,23.7,16.0,30.34,ENE,69,2.0,-999.0,72,-99.99,,,0.00,weatherlink.com 1.10,2013-12-14 09:55:00,
2013-12-14 05:10:00,23.6,16.0,30.35,ENE,63,5.0,-999.0,73,-99.99,,,0.00,weatherlink.com 1.10,2013-12-14 10:10:00,
2013-12-14 05:25:00,23.5,16.0,30.36,NNE,23,3.0,-999.0,73,-99.99,,,0.00,weatherlink.com 1.10,2013-12-14 10:25:00,
2013-12-14 05:40:00,23.5,16.0,30.37,NE,44,5.0,-999.0,73,-99.99,,,0.00,weatherlink.com 1.10,2013-12-14 10:40:00,
2013-12-14 05:55:00,23.4,16.0,30.37,NE,38,0.0,-999.0,74,-99.99,,,0.00,weatherlink.com 1.10,2013-12-14 10:55:00,
2013-12-14 06:10:00,23.4,16.0,30.37,NE,56,2.0,-999.0,74,-99.99,,,0.00,weatherlink.com 1.10,2013-12-14 11:10:00,
2013-12-14 06:25:00,23.3,17.0,30.37,ENE,65,1.0,-999.0,75,-99.99,,,0.00,weatherlink.com 1.10,2013-12-14 11:25:00,
2013-12-14 06:40:00,23.3,17.0,30.37,NNW,344,3.0,-999.0,75,-99.99,,,0.00,weatherlink.com 1.10,2013-12-14 11:40:00,
2013-12-14 06:55:00,23.2,16.0,30.38,ENE,76,2.0,-999.0,75,-99.99,,,0.00,weatherlink.com 1.10,2013-12-14 11:55:00,
2013-12-14 07:10:00,23.1,17.0,30.37,NE,40,3.0,-999.0,76,-99.99,,,0.00,weatherlink.com 1.10,2013-12-14 12:10:00,
2013-12-14 07:25:00,23.1,17.0,30.38,NE,38,3.0,-999.0,76,-99.99,,,0.00,weatherlink.com 1.10,2013-12-14 12:25:00,
2013-12-14 07:40:00,23.1,17.0,30.39,NE,45,2.0,-999.0,77,-99.99,,,0.00,weatherlink.com 1.10,2013-12-14 12:40:00,
2013-12-14 07:55:00,23.1,17.0,30.38,ENE,68,1.0,-999.0,77,-99.99,,,0.00,weatherlink.com 1.10,2013-12-14 12:55:00,
2013-12-14 08:10:00,23.1,17.0,30.38,NW,321,0.0,-999.0,78,-99.99,,,0.00,weatherlink.com 1.10,2013-12-14 13:10:00,
2013-12-14 08:25:00,23.2,18.0,30.39,ENE,59,2.0,-999.0,79,-99.99,,,0.00,weatherlink.com 1.10,2013-12-14 13:25:00,
2013-12-14 08:40:00,23.3,18.0,30.39,NNE,27,2.0,-999.0,80,-99.99,,,0.00,weatherlink.com 1.10,2013-12-14 13:40:00,
2013-12-14 08:55:00,23.5,19.0,30.39,NNW,336,2.0,-999.0,81,-99.99,,,0.00,weatherlink.com 1.10,2013-12-14 13:55:00,
2013-12-14 09:10:00,23.5,19.0,30.39,NE,53,2.0,-999.0,81,-99.99,,,0.00,weatherlink.com 1.10,2013-12-14 14:10:00,
2013-12-14 09:25:00,23.7,19.0,30.39,NNW,340,1.0,-999.0,82,-99.99,,,0.00,weatherlink.com 1.10,2013-12-14 14:25:00,
2013-12-14 09:40:00,23.7,20.0,30.40,NNE,30,0.0,-999.0,85,-99.99,,,0.00,weatherlink.com 1.10,2013-12-14 14:40:00,
2013-12-14 09:55:00,23.9,21.0,30.39,NE,40,1.0,-999.0,87,-99.99,,,0.00,weatherlink.com 1.10,2013-12-14 14:55:00,
2013-12-14 10:10:00,24.2,21.0,30.39,NE,48,0.0,-999.0,87,-99.99,,,0.00,weatherlink.com 1.10,2013-12-14 15:10:00,
2013-12-14 10:25:00,24.3,21.0,30.39,NNE,17,0.0,-999.0,88,-99.99,,,0.00,weatherlink.com 1.10,2013-12-14 15:25:00,
2013-12-14 10:40:00,24.6,22.0,30.37,NE,52,0.0,-999.0,89,-99.99,,,0.00,weatherlink.com 1.10,2013-12-14 15:40:00,
2013-12-14 10:55:00,24.7,22.0,30.37,NNE,26,1.0,-999.0,89,-99.99,,,0.00,weatherlink.com 1.10,2013-12-14 15:55:00,
2013-12-14 11:10:00,25.1,23.0,30.35,NNE,24,3.0,-999.0,90,-99.99,,,0.00,weatherlink.com 1.10,2013-12-14 16:10:00,
2013-12-14 11:25:00,25.5,23.0,30.33,NNE,21,1.0,-999.0,90,-99.99,,,0.00,weatherlink.com 1.10,2013-12-14 16:25:00,
2013-12-14 11:40:00,26.0,24.0,30.33,NE,56,1.0,-999.0,91,-99.99,,,0.00,weatherlink.com 1.10,2013-12-14 16:40:00,
2013-12-14 11:55:00,26.4,24.0,30.32,ENE,74,0.0,-999.0,91,-99.99,,,0.00,weatherlink.com 1.10,2013-12-14 16:55:00,
2013-12-14 12:10:00,26.9,25.0,30.30,NNE,12,1.0,-999.0,91,-99.99,,,0.00,weatherlink.com 1.10,2013-12-14 17:10:00,
2013-12-14 12:25:00,27.4,25.0,30.29,NNE,26,3.0,-999.0,91,-99.99,,,0.00,weatherlink.com 1.10,2013-12-14 17:25:00,
2013-12-14 12:41:00,27.5,25.0,30.27,NNE,17,2.0,-999.0,91,-99.99,,,0.00,weatherlink.com 1.10,2013-12-14 17:41:00,
2013-12-14 12:55:00,27.5,25.2,30.26,ENE,65,1.0,7.0,91,0.00,,,0.00,Wunderground v.1.15,2013-12-14 17:55:00,
2013-12-14 12:57:00,27.5,25.0,30.25,NNE,22,1.0,-999.0,91,-99.99,,,0.00,weatherlink.com 1.10,2013-12-14 17:57:00,
2013-12-14 13:00:00,27.5,25.2,30.25,NE,34,1.0,1.0,91,0.00,,,0.00,Wunderground v.1.15,2013-12-14 18:00:00,
2013-12-14 13:05:00,27.5,25.2,30.25,NE,49,2.0,3.0,91,0.00,,,0.00,Wunderground v.1.15,2013-12-14 18:05:00,
2013-12-14 13:11:00,27.5,25.0,30.24,NNE,30,3.0,-999.0,91,-99.99,,,0.00,weatherlink.com 1.10,2013-12-14 18:11:00,
2013-12-14 13:15:00,27.5,25.2,30.24,NE,42,2.0,2.0,91,0.00,,,0.00,Wunderground v.1.15,2013-12-14 18:15:00,
2013-12-14 13:20:00,27.5,25.2,30.24,NW,304,2.0,3.0,91,0.00,,,0.00,Wunderground v.1.15,2013-12-14 18:20:00,
2013-12-14 13:25:00,27.6,25.3,30.24,NNE,33,2.0,3.0,91,0.00,,,0.00,Wunderground v.1.15,2013-12-14 18:25:00,
2013-12-14 13:27:00,27.6,25.0,30.23,NE,43,0.0,-999.0,91,-99.99,,,0.00,weatherlink.com 1.10,2013-12-14 18:27:00,
2013-12-14 13:35:00,27.5,25.5,30.24,ENE,64,2.0,2.0,92,0.00,,,0.00,Wunderground v.1.15,2013-12-14 18:35:00,
2013-12-14 13:42:00,27.5,26.0,30.23,NE,52,4.0,-999.0,92,-99.99,,,0.00,weatherlink.com 1.10,2013-12-14 18:42:00,
2013-12-14 13:45:00,27.5,25.2,30.23,ENE,57,2.0,2.0,91,0.00,,,0.00,Wunderground v.1.15,2013-12-14 18:45:00,
2013-12-14 13:50:00,27.5,25.2,30.23,ENE,72,1.0,7.0,91,0.00,,,0.00,Wunderground v.1.15,2013-12-14 18:50:00,
2013-12-14 13:57:00,27.5,26.0,30.22,NE,44,1.0,-999.0,92,-99.99,,,0.00,weatherlink.com 1.10,2013-12-14 18:57:00,
2013-12-14 14:05:00,27.5,25.5,30.22,NE,45,2.0,3.0,92,0.00,,,0.00,Wunderground v.1.15,2013-12-14 19:05:00,
2013-12-14 14:10:00,27.6,25.6,30.21,NE,54,2.0,7.0,92,0.00,,,0.00,Wunderground v.1.15,2013-12-14 19:10:00,
2013-12-14 14:12:00,27.5,26.0,30.21,NNE,28,5.0,-999.0,92,-99.99,,,0.00,weatherlink.com 1.10,2013-12-14 19:12:00,
2013-12-14 14:20:00,27.5,25.5,30.20,ENE,71,2.0,7.0,92,0.00,,,0.00,Wunderground v.1.15,2013-12-14 19:20:00,
2013-12-14 14:28:00,27.5,26.0,30.20,ENE,65,4.0,-999.0,92,-99.99,,,0.00,weatherlink.com 1.10,2013-12-14 19:28:00,
2013-12-14 14:35:00,27.5,25.5,30.19,ENE,63,2.0,7.0,92,0.00,,,0.00,Wunderground v.1.15,2013-12-14 19:35:00,
2013-12-14 14:42:00,27.5,26.0,30.19,ENE,57,3.0,-999.0,92,-99.99,,,0.00,weatherlink.com 1.10,2013-12-14 19:42:00,
2013-12-14 14:45:00,27.5,25.5,30.19,NE,34,2.0,7.0,92,0.00,,,0.00,Wunderground v.1.15,2013-12-14 19:45:00,
2013-12-14 14:55:00,27.6,25.6,30.19,East,81,1.0,7.0,92,0.00,,,0.00,Wunderground v.1.15,2013-12-14 19:55:00,
2013-12-14 14:58:00,27.7,26.0,30.19,West,263,3.0,-999.0,92,-99.99,,,0.00,weatherlink.com 1.10,2013-12-14 19:58:00,
2013-12-14 15:00:00,27.7,25.7,30.19,ENE,61,2.0,7.0,92,0.00,,,0.00,Wunderground v.1.15,2013-12-14 20:00:00,
2013-12-14 15:10:00,27.8,25.8,30.18,NNW,341,2.0,2.0,92,0.00,,,0.00,Wunderground v.1.15,2013-12-14 20:10:00,
2013-12-14 15:12:00,27.9,26.0,30.19,East,83,2.0,-999.0,91,-99.99,,,0.00,weatherlink.com 1.10,2013-12-14 20:12:00,
2013-12-14 15:20:00,27.8,25.5,30.18,NE,46,1.0,7.0,91,0.00,,,0.00,Wunderground v.1.15,2013-12-14 20:20:00,
2013-12-14 15:25:00,27.8,25.5,30.18,NE,54,2.0,7.0,91,0.00,,,0.00,Wunderground v.1.15,2013-12-14 20:25:00,
2013-12-14 15:28:00,27.9,26.0,30.18,NE,49,2.0,-999.0,91,-99.99,,,0.00,weatherlink.com 1.10,2013-12-14 20:28:00,
2013-12-14 15:35:00,27.9,25.6,30.17,NE,56,2.0,3.0,91,0.00,,,0.00,Wunderground v.1.15,2013-12-14 20:35:00,
2013-12-14 15:40:00,27.8,25.5,30.17,NNE,26,3.0,3.0,91,0.00,,,0.00,Wunderground v.1.15,2013-12-14 20:40:00,
2013-12-14 15:43:00,27.8,26.0,30.17,ENE,61,3.0,-999.0,91,-99.99,,,0.00,weatherlink.com 1.10,2013-12-14 20:43:00,
2013-12-14 15:50:00,27.7,25.4,30.16,ENE,71,3.0,3.0,91,0.00,,,0.00,Wunderground v.1.15,2013-12-14 20:50:00,
2013-12-14 15:55:00,27.6,25.3,30.16,NE,51,2.0,7.0,91,0.00,,,0.00,Wunderground v.1.15,2013-12-14 20:55:00,
2013-12-14 15:59:00,27.6,25.0,30.15,NE,48,2.0,-999.0,91,-99.99,,,0.00,weatherlink.com 1.10,2013-12-14 20:59:00,
2013-12-14 16:05:00,27.5,25.2,30.14,ENE,67,2.0,7.0,91,0.00,,,0.00,Wunderground v.1.15,2013-12-14 21:05:00,
2013-12-14 16:13:00,27.3,25.0,30.14,NE,41,1.0,-999.0,91,-99.99,,,0.00,weatherlink.com 1.10,2013-12-14 21:13:00,
2013-12-14 16:20:00,27.1,24.8,30.13,NNE,22,2.0,7.0,91,0.00,,,0.00,Wunderground v.1.15,2013-12-14 21:20:00,
2013-12-14 16:25:00,27.0,24.7,30.13,NE,43,2.0,7.0,91,0.00,,,0.00,Wunderground v.1.15,2013-12-14 21:25:00,
2013-12-14 16:29:00,26.9,25.0,30.14,SE,125,1.0,-999.0,91,-99.99,,,0.00,weatherlink.com 1.10,2013-12-14 21:29:00,
2013-12-14 16:30:00,26.8,24.5,30.14,ENE,63,2.0,7.0,91,0.00,,,0.00,Wunderground v.1.15,2013-12-14 21:30:00,
2013-12-14 16:40:00,26.6,24.3,30.14,WSW,250,2.0,7.0,91,0.00,,,0.00,Wunderground v.1.15,2013-12-14 21:40:00,
2013-12-14 16:45:00,26.5,24.0,30.15,NNE,33,4.0,-999.0,91,-99.99,,,0.00,weatherlink.com 1.10,2013-12-14 21:45:00,
2013-12-14 16:55:00,26.3,24.0,30.14,NNE,32,2.0,4.0,91,0.00,,,0.00,Wunderground v.1.15,2013-12-14 21:55:00,
2013-12-14 17:00:00,26.2,24.0,30.14,ENE,78,2.0,-999.0,91,-99.99,,,0.00,weatherlink.com 1.10,2013-12-14 22:00:00,
2013-12-14 17:05:00,26.0,23.7,30.14,ENE,65,3.0,7.0,91,0.00,,,0.00,Wunderground v.1.15,2013-12-14 22:05:00,
2013-12-14 17:14:00,25.7,24.0,30.13,NE,51,8.0,-999.0,91,-99.99,,,0.00,weatherlink.com 1.10,2013-12-14 22:14:00,
2013-12-14 17:20:00,25.6,23.3,30.12,NNW,333,3.0,3.0,91,0.00,,,0.00,Wunderground v.1.15,2013-12-14 22:20:00,
2013-12-14 17:30:00,25.4,23.0,30.11,ENE,71,3.0,-999.0,91,-99.99,,,0.00,weatherlink.com 1.10,2013-12-14 22:30:00,
2013-12-14 17:35:00,25.3,23.0,30.11,ESE,105,3.0,7.0,91,0.00,,,0.00,Wunderground v.1.15,2013-12-14 22:35:00,
2013-12-14 17:45:00,25.2,22.9,30.11,NE,50,2.0,4.0,91,0.00,,,0.00,Wunderground v.1.15,2013-12-14 22:45:00,
2013-12-14 17:46:00,25.2,23.0,30.11,ENE,78,2.0,-999.0,91,-99.99,,,0.00,weatherlink.com 1.10,2013-12-14 22:46:00,
2013-12-14 17:55:00,25.1,22.8,30.10,NE,53,2.0,3.0,91,0.00,,,0.00,Wunderground v.1.15,2013-12-14 22:55:00,
2013-12-14 18:01:00,25.0,23.0,30.10,West,265,1.0,-999.0,91,-99.99,,,0.00,weatherlink.com 1.10,2013-12-14 23:01:00,
2013-12-14 18:05:00,24.9,22.6,30.10,NE,42,2.0,3.0,91,0.00,,,0.00,Wunderground v.1.15,2013-12-14 23:05:00,
2013-12-14 18:10:00,24.8,22.5,30.09,ENE,63,1.0,7.0,91,0.00,,,0.00,Wunderground v.1.15,2013-12-14 23:10:00,
2013-12-14 18:15:00,24.7,23.0,30.08,NNE,14,5.0,-999.0,91,-99.99,,,0.00,weatherlink.com 1.10,2013-12-14 23:15:00,
2013-12-14 18:25:00,24.7,22.4,30.08,NE,43,2.0,7.0,91,0.00,,,0.00,Wunderground v.1.15,2013-12-14 23:25:00,
2013-12-14 18:31:00,24.5,22.0,30.08,ENE,59,5.0,-999.0,91,-99.99,,,0.00,weatherlink.com 1.10,2013-12-14 23:31:00,
2013-12-14 18:40:00,24.3,22.3,30.07,NE,51,2.0,7.0,92,0.00,,,0.00,Wunderground v.1.15,2013-12-14 23:40:00,
2013-12-14 18:45:00,24.2,22.0,30.07,NE,51,3.0,-999.0,92,-99.99,,,0.00,weatherlink.com 1.10,2013-12-14 23:45:00,
2013-12-14 18:50:00,24.1,22.1,30.06,NE,41,2.0,2.0,92,0.00,,,0.00,Wunderground v.1.15,2013-12-14 23:50:00,
2013-12-14 19:00:00,24.0,22.0,30.06,NE,46,1.0,1.0,92,0.00,,,0.00,Wunderground v.1.15,2013-12-15 00:00:00,
2013-12-14 19:01:00,24.0,22.0,30.06,NE,45,0.0,-999.0,92,-99.99,,,0.00,weatherlink.com 1.10,2013-12-15 00:01:00,
2013-12-14 19:10:00,24.0,22.0,30.05,NE,52,0.0,7.0,92,0.00,,,0.00,Wunderground v.1.15,2013-12-15 00:10:00,
2013-12-14 19:15:00,24.0,22.0,30.05,ENE,58,0.0,7.0,92,0.00,,,0.00,Wunderground v.1.15,2013-12-15 00:15:00,
2013-12-14 19:16:00,24.0,22.0,30.05,ENE,69,0.0,-999.0,92,-99.99,,,0.00,weatherlink.com 1.10,2013-12-15 00:16:00,
2013-12-14 19:25:00,24.0,22.0,30.03,SW,223,1.0,7.0,92,0.00,,,0.00,Wunderground v.1.15,2013-12-15 00:25:00,
2013-12-14 19:30:00,24.0,22.0,30.03,ESE,106,1.0,1.0,92,0.00,,,0.00,Wunderground v.1.15,2013-12-15 00:30:00,
2013-12-14 19:32:00,24.0,22.0,30.03,ENE,76,0.0,-999.0,92,-99.99,,,0.00,weatherlink.com 1.10,2013-12-15 00:32:00,
2013-12-14 19:40:00,24.1,22.1,30.02,NE,44,1.0,7.0,92,0.00,,,0.00,Wunderground v.1.15,2013-12-15 00:40:00,
2013-12-14 19:45:00,24.0,22.0,30.02,ENE,58,1.0,7.0,92,0.00,,,0.00,Wunderground v.1.15,2013-12-15 00:45:00,
2013-12-14 19:46:00,24.1,22.0,30.02,ENE,58,0.0,-999.0,92,-99.99,,,0.00,weatherlink.com 1.10,2013-12-15 00:46:00,
2013-12-14 19:55:00,24.1,22.1,30.02,ENE,57,1.0,3.0,92,0.00,,,0.00,Wunderground v.1.15,2013-12-15 00:55:00,
2013-12-14 20:00:00,24.0,22.0,30.01,ENE,75,1.0,1.0,92,0.00,,,0.00,Wunderground v.1.15,2013-12-15 01:00:00,
2013-12-14 20:02:00,24.0,22.0,30.01,North,11,0.0,-999.0,92,-99.99,,,0.00,weatherlink.com 1.10,2013-12-15 01:02:00,
2013-12-14 20:05:00,24.0,22.0,30.00,ENE,75,1.0,7.0,92,0.00,,,0.00,Wunderground v.1.15,2013-12-15 01:05:00,
2013-12-14 20:15:00,24.0,22.0,30.01,South,171,2.0,7.0,92,0.00,,,0.00,Wunderground v.1.15,2013-12-15 01:15:00,
2013-12-14 20:18:00,24.0,22.0,30.01,NE,51,6.0,-999.0,92,-99.99,,,0.00,weatherlink.com 1.10,2013-12-15 01:18:00,
2013-12-14 20:25:00,24.0,22.0,30.00,SSW,212,2.0,7.0,92,0.00,,,0.00,Wunderground v.1.15,2013-12-15 01:25:00,
2013-12-14 20:32:00,24.0,22.0,29.99,NE,55,4.0,-999.0,92,-99.99,,,0.00,weatherlink.com 1.10,2013-12-15 01:32:00,
2013-12-14 20:40:00,23.9,21.9,29.99,NNW,338,3.0,3.0,92,0.00,,,0.00,Wunderground v.1.15,2013-12-15 01:40:00,
2013-12-14 20:47:00,23.8,22.0,29.98,ENE,64,1.0,-999.0,92,-99.99,,,0.00,weatherlink.com 1.10,2013-12-15 01:47:00,
2013-12-14 20:55:00,23.6,21.6,29.99,ENE,65,1.0,7.0,92,0.00,,,0.00,Wunderground v.1.15,2013-12-15 01:55:00,
2013-12-14 21:02:00,23.6,22.0,29.99,NE,44,3.0,-999.0,92,-99.99,,,0.00,weatherlink.com 1.10,2013-12-15 02:02:00,
2013-12-14 21:17:00,23.6,22.0,29.97,ENE,63,1.0,-999.0,92,-99.99,,,0.00,weatherlink.com 1.10,2013-12-15 02:17:00,
2013-12-14 21:32:00,23.5,22.0,29.96,East,98,2.0,-999.0,92,-99.99,,,0.00,weatherlink.com 1.10,2013-12-15 02:32:00,
2013-12-14 21:47:00,23.6,22.0,29.95,West,260,0.0,-999.0,92,-99.99,,,0.00,weatherlink.com 1.10,2013-12-15 02:47:00,
2013-12-14 22:02:00,23.8,22.0,29.92,NE,42,0.0,-999.0,92,-99.99,,,0.00,weatherlink.com 1.10,2013-12-15 03:02:00,
2013-12-14 22:17:00,23.9,22.0,29.90,East,97,1.0,-999.0,92,-99.99,,,0.00,weatherlink.com 1.10,2013-12-15 03:17:00,
2013-12-14 22:32:00,24.3,22.0,29.87,East,89,1.0,-999.0,92,-99.99,,,0.00,weatherlink.com 1.10,2013-12-15 03:32:00,
2013-12-14 22:47:00,24.7,23.0,29.85,ENE,65,0.0,-999.0,92,-99.99,,,0.00,weatherlink.com 1.10,2013-12-15 03:47:00,
2013-12-14 23:02:00,25.1,23.0,29.84,NW,326,2.0,-999.0,92,-99.99,,,0.00,weatherlink.com 1.10,2013-12-15 04:02:00,
2013-12-14 23:17:00,25.5,24.0,29.82,NE,34,1.0,-999.0,93,-99.99,,,0.00,weatherlink.com 1.10,2013-12-15 04:17:00,
2013-12-14 23:32:00,25.4,23.0,29.81,NNE,18,2.0,-999.0,92,-99.99,,,0.00,weatherlink.com 1.10,2013-12-15 04:32:00,
2013-12-14 23:47:00,25.1,23.0,29.81,NE,34,3.0,-999.0,92,-99.99,,,0.00,weatherlink.com 1.10,2013-12-15 04:47:00,